createdAt,value
2019-04-26T00:00:58.662Z,17.83
2019-04-26T00:01:58.653Z,17.87
2019-04-26T00:02:58.673Z,17.87
2019-04-26T00:03:58.639Z,17.83
2019-04-26T00:04:59.137Z,17.92
2019-04-26T00:05:58.618Z,17.83
2019-04-26T00:06:58.599Z,17.77
2019-04-26T00:07:58.590Z,17.81
2019-04-26T00:08:58.606Z,17.80
2019-04-26T00:09:58.575Z,17.79
2019-04-26T00:10:58.589Z,17.79
2019-04-26T00:11:58.551Z,17.79
2019-04-26T00:12:58.536Z,17.81
2019-04-26T00:13:58.542Z,17.76
2019-04-26T00:14:58.518Z,17.76
2019-04-26T00:15:58.502Z,17.79
2019-04-26T00:16:58.499Z,17.77
2019-04-26T00:17:58.487Z,17.68
2019-04-26T00:18:58.498Z,17.66
2019-04-26T00:19:58.485Z,17.65
2019-04-26T00:20:58.458Z,17.68
2019-04-26T00:21:58.440Z,17.62
2019-04-26T00:22:58.461Z,17.68
2019-04-26T00:23:58.444Z,17.58
2019-04-26T00:24:58.407Z,17.65
2019-04-26T00:25:58.397Z,17.71
2019-04-26T00:26:58.391Z,17.63
2019-04-26T00:27:58.376Z,17.62
2019-04-26T00:28:58.388Z,17.63
2019-04-26T00:29:58.384Z,17.66
2019-04-26T00:30:58.356Z,17.60
2019-04-26T00:31:58.340Z,17.60
2019-04-26T00:32:58.323Z,17.62
2019-04-26T00:33:58.329Z,17.54
2019-04-26T00:34:58.307Z,17.55
2019-04-26T00:35:58.289Z,17.51
2019-04-26T00:36:58.286Z,17.57
2019-04-26T00:37:58.281Z,17.51
2019-04-26T00:38:58.288Z,17.51
2019-04-26T00:39:58.251Z,17.57
2019-04-26T00:40:58.247Z,17.51
2019-04-26T00:41:58.234Z,17.54
2019-04-26T00:42:58.225Z,17.49
2019-04-26T00:43:58.211Z,17.53
2019-04-26T00:44:58.225Z,17.47
2019-04-26T00:45:58.198Z,17.51
2019-04-26T00:46:58.175Z,17.49
2019-04-26T00:47:58.166Z,17.49
2019-04-26T00:48:58.160Z,17.45
2019-04-26T00:49:58.155Z,17.47
2019-04-26T00:50:58.168Z,17.43
2019-04-26T00:51:58.126Z,17.42
2019-04-26T00:52:58.108Z,17.49
2019-04-26T00:53:58.117Z,17.43
2019-04-26T00:54:58.113Z,17.42
2019-04-26T00:55:58.129Z,17.45
2019-04-26T00:56:58.101Z,17.43
2019-04-26T00:57:58.060Z,17.39
2019-04-26T00:58:58.047Z,17.39
2019-04-26T00:59:58.055Z,17.43
2019-04-26T01:00:58.032Z,17.38
2019-04-26T01:01:58.017Z,17.42
2019-04-26T01:02:58.011Z,17.40
2019-04-26T01:03:57.999Z,17.30
2019-04-26T01:04:58.001Z,17.33
2019-04-26T01:06:00.080Z,17.30
2019-04-26T01:06:57.962Z,17.32
2019-04-26T01:07:57.955Z,17.27
2019-04-26T01:08:57.950Z,17.25
2019-04-26T01:09:57.938Z,17.30
2019-04-26T01:10:57.951Z,17.22
2019-04-26T01:11:57.918Z,17.32
2019-04-26T01:12:57.905Z,17.22
2019-04-26T01:13:57.889Z,17.25
2019-04-26T01:14:57.881Z,17.21
2019-04-26T01:15:57.896Z,17.17
2019-04-26T01:16:57.855Z,17.22
2019-04-26T01:17:57.839Z,17.24
2019-04-26T01:18:57.832Z,17.24
2019-04-26T01:19:57.822Z,17.10
2019-04-26T01:20:57.808Z,17.14
2019-04-26T01:21:57.817Z,17.12
2019-04-26T01:22:57.790Z,17.14
2019-04-26T01:23:57.782Z,17.15
2019-04-26T01:24:57.768Z,17.15
2019-04-26T01:25:57.767Z,17.03
2019-04-26T01:26:57.765Z,17.07
2019-04-26T01:27:57.733Z,17.10
2019-04-26T01:28:57.723Z,17.02
2019-04-26T01:29:57.744Z,17.09
2019-04-26T01:30:57.708Z,16.96
2019-04-26T01:31:57.699Z,16.96
2019-04-26T01:32:57.685Z,16.98
2019-04-26T01:33:57.672Z,17.06
2019-04-26T01:34:57.662Z,17.02
2019-04-26T01:35:57.684Z,17.03
2019-04-26T01:36:57.639Z,16.91
2019-04-26T01:37:57.637Z,16.98
2019-04-26T01:38:57.644Z,17.00
2019-04-26T01:39:57.631Z,16.96
2019-04-26T01:40:57.606Z,16.92
2019-04-26T01:41:57.611Z,16.87
2019-04-26T01:42:57.594Z,16.87
2019-04-26T01:43:57.567Z,16.87
2019-04-26T01:44:57.560Z,16.85
2019-04-26T01:45:57.548Z,16.84
2019-04-26T01:46:57.564Z,16.85
2019-04-26T01:47:57.545Z,16.78
2019-04-26T01:48:57.513Z,16.81
2019-04-26T01:49:57.500Z,16.82
2019-04-26T01:50:57.497Z,16.75
2019-04-26T01:51:57.476Z,16.80
2019-04-26T01:52:57.495Z,16.72
2019-04-26T01:53:57.468Z,16.73
2019-04-26T01:54:57.450Z,16.69
2019-04-26T01:55:57.438Z,16.67
2019-04-26T01:56:57.426Z,16.60
2019-04-26T01:57:57.433Z,16.69
2019-04-26T01:58:57.416Z,16.65
2019-04-26T01:59:57.398Z,16.67
2019-04-26T02:00:57.380Z,16.57
2019-04-26T02:01:57.369Z,16.60
2019-04-26T02:02:57.387Z,16.60
2019-04-26T02:03:57.347Z,16.55
2019-04-26T02:04:57.342Z,16.55
2019-04-26T02:05:57.331Z,16.55
2019-04-26T02:06:57.321Z,16.51
2019-04-26T02:07:57.313Z,16.54
2019-04-26T02:08:57.315Z,16.57
2019-04-26T02:09:57.285Z,16.55
2019-04-26T02:10:57.271Z,16.40
2019-04-26T02:11:57.265Z,16.45
2019-04-26T02:12:57.256Z,16.48
2019-04-26T02:13:57.269Z,16.41
2019-04-26T02:14:57.230Z,16.44
2019-04-26T02:15:57.219Z,16.42
2019-04-26T02:16:57.207Z,16.41
2019-04-26T02:17:57.199Z,16.40
2019-04-26T02:18:57.205Z,16.33
2019-04-26T02:19:57.182Z,16.34
2019-04-26T02:20:57.163Z,16.37
2019-04-26T02:21:57.152Z,16.32
2019-04-26T02:22:57.148Z,16.29
2019-04-26T02:23:57.157Z,16.29
2019-04-26T02:24:57.133Z,16.27
2019-04-26T02:25:57.110Z,16.23
2019-04-26T02:26:57.104Z,16.25
2019-04-26T02:27:57.091Z,16.29
2019-04-26T02:28:57.100Z,16.18
2019-04-26T02:29:57.069Z,16.16
2019-04-26T02:30:57.060Z,16.13
2019-04-26T02:31:57.057Z,16.17
2019-04-26T02:32:57.037Z,16.23
2019-04-26T02:33:57.061Z,16.08
2019-04-26T02:34:57.015Z,16.14
2019-04-26T02:35:57.005Z,16.08
2019-04-26T02:36:58.944Z,16.16
2019-04-26T02:37:56.982Z,16.17
2019-04-26T02:38:56.975Z,16.17
2019-04-26T02:39:56.982Z,16.10
2019-04-26T02:40:56.951Z,16.18
2019-04-26T02:41:56.939Z,16.03
2019-04-26T02:42:56.931Z,16.07
2019-04-26T02:43:56.925Z,16.08
2019-04-26T02:44:56.927Z,16.04
2019-04-26T02:45:56.914Z,16.06
2019-04-26T02:46:56.886Z,16.07
2019-04-26T02:47:56.878Z,16.07
2019-04-26T02:48:56.868Z,16.22
2019-04-26T02:49:56.875Z,16.03
2019-04-26T02:50:56.840Z,16.10
2019-04-26T02:51:56.832Z,16.04
2019-04-26T02:52:56.826Z,16.04
2019-04-26T02:53:56.816Z,16.06
2019-04-26T02:54:56.820Z,16.03
2019-04-26T02:55:56.788Z,15.98
2019-04-26T02:56:56.793Z,16.03
2019-04-26T02:57:56.813Z,16.06
2019-04-26T02:58:56.757Z,16.01
2019-04-26T02:59:56.744Z,16.03
2019-04-26T03:00:56.761Z,16.04
2019-04-26T03:01:56.726Z,16.01
2019-04-26T03:02:56.714Z,15.96
2019-04-26T03:03:56.710Z,15.96
2019-04-26T03:04:56.705Z,15.93
2019-04-26T03:05:56.707Z,15.95
2019-04-26T03:07:03.338Z,15.93
2019-04-26T03:07:57.658Z,15.89
2019-04-26T03:08:56.648Z,15.86
2019-04-26T03:09:56.639Z,15.95
2019-04-26T03:10:56.645Z,15.95
2019-04-26T03:11:56.621Z,15.92
2019-04-26T03:12:56.606Z,15.86
2019-04-26T03:13:56.601Z,15.92
2019-04-26T03:15:12.699Z,15.89
2019-04-26T03:15:57.598Z,15.93
2019-04-26T03:16:56.564Z,15.95
2019-04-26T03:17:56.552Z,15.81
2019-04-26T03:18:56.541Z,15.86
2019-04-26T03:19:56.537Z,15.86
2019-04-26T03:20:56.547Z,15.78
2019-04-26T03:21:56.518Z,15.86
2019-04-26T03:22:56.506Z,15.85
2019-04-26T03:23:58.569Z,15.78
2019-04-26T03:24:56.479Z,15.91
2019-04-26T03:25:56.494Z,15.91
2019-04-26T03:26:56.456Z,15.86
2019-04-26T03:27:56.491Z,15.86
2019-04-26T03:28:56.442Z,15.86
2019-04-26T03:30:17.547Z,15.91
2019-04-26T03:30:57.442Z,15.86
2019-04-26T03:31:56.468Z,15.81
2019-04-26T03:32:56.411Z,15.81
2019-04-26T03:33:56.457Z,15.81
2019-04-26T03:34:56.434Z,15.81
2019-04-26T03:35:58.223Z,15.84
2019-04-26T03:36:56.374Z,15.80
2019-04-26T03:37:56.348Z,15.76
2019-04-26T03:38:56.332Z,15.80
2019-04-26T03:39:56.318Z,15.76
2019-04-26T03:40:56.314Z,15.77
2019-04-26T03:41:56.313Z,15.70
2019-04-26T03:42:56.307Z,15.70
2019-04-26T03:43:56.291Z,15.77
2019-04-26T03:44:56.266Z,15.80
2019-04-26T03:45:56.252Z,15.78
2019-04-26T03:46:56.247Z,15.81
2019-04-26T03:47:56.253Z,15.74
2019-04-26T03:48:56.246Z,15.80
2019-04-26T03:49:56.226Z,15.80
2019-04-26T03:50:56.201Z,15.74
2019-04-26T03:51:56.190Z,15.78
2019-04-26T03:52:56.184Z,15.77
2019-04-26T03:53:56.204Z,15.78
2019-04-26T03:54:56.164Z,15.81
2019-04-26T03:55:56.151Z,15.81
2019-04-26T03:56:56.139Z,15.78
2019-04-26T03:57:56.155Z,15.81
2019-04-26T03:58:56.124Z,15.80
2019-04-26T03:59:56.103Z,15.78
2019-04-26T04:00:56.098Z,15.78
2019-04-26T04:01:56.086Z,15.81
2019-04-26T04:02:56.077Z,15.84
2019-04-26T04:03:56.086Z,15.80
2019-04-26T04:04:56.049Z,15.81
2019-04-26T04:05:56.040Z,15.80
2019-04-26T04:07:03.688Z,15.84
2019-04-26T04:07:57.023Z,15.76
2019-04-26T04:08:56.051Z,15.80
2019-04-26T04:09:55.997Z,15.74
2019-04-26T04:10:55.986Z,15.74
2019-04-26T04:12:10.308Z,15.78
2019-04-26T04:12:56.971Z,15.73
2019-04-26T04:13:55.988Z,15.70
2019-04-26T04:14:55.997Z,15.78
2019-04-26T04:15:55.969Z,15.70
2019-04-26T04:16:55.926Z,15.77
2019-04-26T04:17:55.912Z,15.84
2019-04-26T04:18:55.919Z,15.77
2019-04-26T04:19:55.917Z,15.80
2019-04-26T04:20:55.887Z,15.91
2019-04-26T04:21:55.916Z,15.81
2019-04-26T04:22:55.857Z,15.81
2019-04-26T04:23:55.856Z,15.78
2019-04-26T04:24:55.862Z,15.88
2019-04-26T04:25:55.835Z,15.88
2019-04-26T04:26:55.818Z,15.86
2019-04-26T04:27:55.812Z,15.92
2019-04-26T04:28:55.790Z,15.85
2019-04-26T04:29:56.088Z,15.86
2019-04-26T04:30:55.786Z,15.85
2019-04-26T04:31:55.767Z,15.92
2019-04-26T04:32:55.772Z,15.88
2019-04-26T04:33:55.754Z,15.93
2019-04-26T04:34:55.733Z,16.03
2019-04-26T04:35:55.725Z,15.96
2019-04-26T04:36:55.707Z,15.98
2019-04-26T04:38:08.726Z,16.01
2019-04-26T04:39:11.325Z,16.07
2019-04-26T04:39:56.678Z,16.16
2019-04-26T04:40:55.696Z,16.06
2019-04-26T04:41:55.668Z,16.06
2019-04-26T04:42:55.659Z,16.13
2019-04-26T04:43:55.650Z,16.04
2019-04-26T04:44:55.628Z,16.04
2019-04-26T04:45:55.735Z,16.10
2019-04-26T04:46:55.624Z,16.10
2019-04-26T04:47:55.678Z,16.03
2019-04-26T04:48:55.578Z,16.01
2019-04-26T04:49:55.570Z,16.04
2019-04-26T04:50:55.558Z,16.04
2019-04-26T04:51:55.549Z,16.08
2019-04-26T04:52:55.562Z,16.08
2019-04-26T04:53:55.535Z,16.10
2019-04-26T04:55:07.095Z,16.03
2019-04-26T04:55:56.508Z,16.17
2019-04-26T04:56:55.496Z,16.17
2019-04-26T04:57:55.513Z,16.22
2019-04-26T04:58:55.478Z,16.26
2019-04-26T04:59:55.471Z,16.27
2019-04-26T05:00:55.448Z,16.36
2019-04-26T05:01:55.436Z,16.45
2019-04-26T05:02:55.468Z,16.60
2019-04-26T05:03:55.436Z,16.80
2019-04-26T05:04:55.412Z,16.85
2019-04-26T05:06:06.852Z,17.02
2019-04-26T05:06:56.400Z,17.21
2019-04-26T05:08:05.408Z,17.40
2019-04-26T05:08:56.396Z,17.39
2019-04-26T05:09:55.351Z,17.42
2019-04-26T05:10:55.344Z,17.51
2019-04-26T05:11:55.334Z,17.55
2019-04-26T05:12:55.319Z,17.79
2019-04-26T05:13:55.307Z,18.01
2019-04-26T05:14:55.320Z,18.14
2019-04-26T05:15:55.295Z,18.26
2019-04-26T05:16:55.289Z,18.41
2019-04-26T05:17:55.831Z,18.49
2019-04-26T05:18:55.308Z,18.64
2019-04-26T05:19:55.253Z,18.75
2019-04-26T05:20:55.472Z,18.83
2019-04-26T05:21:55.222Z,18.97
2019-04-26T05:22:55.451Z,19.28
2019-04-26T05:23:55.287Z,19.55
2019-04-26T05:24:55.370Z,19.52
2019-04-26T05:25:55.581Z,19.79
2019-04-26T05:26:55.687Z,19.87
2019-04-26T05:27:55.157Z,20.07
2019-04-26T05:28:55.929Z,19.95
2019-04-26T05:29:56.135Z,19.94
2019-04-26T05:30:56.120Z,20.16
2019-04-26T05:31:56.254Z,20.13
2019-04-26T05:32:55.109Z,20.26
2019-04-26T05:33:55.107Z,20.60
2019-04-26T05:34:55.106Z,20.56
2019-04-26T05:35:55.190Z,20.83
2019-04-26T05:36:55.073Z,20.76
2019-04-26T05:37:55.210Z,20.83
2019-04-26T05:38:55.378Z,20.97
2019-04-26T05:39:55.323Z,21.01
2019-04-26T05:40:55.639Z,20.97
2019-04-26T05:41:55.678Z,20.58
2019-04-26T05:42:55.782Z,21.12
2019-04-26T05:43:55.995Z,21.19
2019-04-26T05:44:54.977Z,21.30
2019-04-26T05:45:56.040Z,21.42
2019-04-26T05:46:55.773Z,21.24
2019-04-26T05:48:10.381Z,21.36
2019-04-26T05:48:55.952Z,21.59
2019-04-26T05:49:55.859Z,21.89
2019-04-26T05:50:55.811Z,22.08
2019-04-26T05:51:55.716Z,22.04
2019-04-26T05:52:55.239Z,21.98
2019-04-26T05:53:55.051Z,22.48
2019-04-26T05:54:54.865Z,22.60
2019-04-26T05:55:55.976Z,22.06
2019-04-26T05:56:54.874Z,21.71
2019-04-26T05:57:54.839Z,21.55
2019-04-26T05:58:54.825Z,21.86
2019-04-26T05:59:55.006Z,21.64
2019-04-26T06:00:55.745Z,21.61
2019-04-26T06:01:54.871Z,22.04
2019-04-26T06:02:54.789Z,22.48
2019-04-26T06:03:54.779Z,22.56
2019-04-26T06:04:55.186Z,22.84
2019-04-26T06:05:54.747Z,23.00
2019-04-26T06:06:55.117Z,23.15
2019-04-26T06:07:54.745Z,23.23
2019-04-26T06:08:55.313Z,23.01
2019-04-26T06:09:54.717Z,22.88
2019-04-26T06:10:55.809Z,23.15
2019-04-26T06:11:54.725Z,22.94
2019-04-26T06:12:54.693Z,22.84
2019-04-26T06:13:55.651Z,22.66
2019-04-26T06:14:54.765Z,22.79
2019-04-26T06:15:54.648Z,23.26
2019-04-26T06:16:54.879Z,23.72
2019-04-26T06:17:55.222Z,23.77
2019-04-26T06:18:55.163Z,23.75
2019-04-26T06:19:55.212Z,23.92
2019-04-26T06:20:55.428Z,23.74
2019-04-26T06:21:54.582Z,23.89
2019-04-26T06:22:57.470Z,23.74
2019-04-26T06:23:55.688Z,24.24
2019-04-26T06:24:54.561Z,24.00
2019-04-26T06:25:57.205Z,24.08
2019-04-26T06:26:54.523Z,24.49
2019-04-26T06:27:54.590Z,24.14
2019-04-26T06:28:54.505Z,23.89
2019-04-26T06:29:55.213Z,24.52
2019-04-26T06:30:55.471Z,24.74
2019-04-26T06:31:55.020Z,24.11
2019-04-26T06:33:00.937Z,24.30
2019-04-26T06:33:56.421Z,24.71
2019-04-26T06:34:55.098Z,24.31
2019-04-26T06:35:55.701Z,24.82
2019-04-26T06:36:55.662Z,25.04
2019-04-26T06:37:55.310Z,24.64
2019-04-26T06:38:54.620Z,24.79
2019-04-26T06:39:54.946Z,25.02
2019-04-26T06:40:54.599Z,25.31
2019-04-26T06:41:55.199Z,25.45
2019-04-26T06:42:54.882Z,25.76
2019-04-26T06:43:55.557Z,25.98
2019-04-26T06:44:55.019Z,26.24
2019-04-26T06:45:55.703Z,26.50
2019-04-26T06:46:55.130Z,26.54
2019-04-26T06:47:54.426Z,26.29
2019-04-26T06:48:54.630Z,26.01
2019-04-26T06:49:54.278Z,26.01
2019-04-26T06:50:54.268Z,26.60
2019-04-26T06:51:54.266Z,26.76
2019-04-26T06:52:56.605Z,26.75
2019-04-26T06:53:54.243Z,26.91
2019-04-26T06:54:54.231Z,26.66
2019-04-26T06:55:54.224Z,26.56
2019-04-26T06:56:54.200Z,26.54
2019-04-26T06:57:54.627Z,26.71
2019-04-26T06:58:54.182Z,27.23
2019-04-26T06:59:54.175Z,27.13
2019-04-26T07:00:54.170Z,27.13
2019-04-26T07:01:54.157Z,27.34
2019-04-26T07:02:54.140Z,27.35
2019-04-26T07:03:54.159Z,27.35
2019-04-26T07:04:54.139Z,27.93
2019-04-26T07:05:54.123Z,28.35
2019-04-26T07:06:54.104Z,28.54
2019-04-26T07:07:54.099Z,27.84
2019-04-26T07:08:57.577Z,27.21
2019-04-26T07:09:54.067Z,26.29
2019-04-26T07:10:54.107Z,26.21
2019-04-26T07:11:54.043Z,26.86
2019-04-26T07:12:54.046Z,27.33
2019-04-26T07:13:54.060Z,27.63
2019-04-26T07:14:54.019Z,26.73
2019-04-26T07:15:54.017Z,26.03
2019-04-26T07:16:54.007Z,26.09
2019-04-26T07:17:53.987Z,25.39
2019-04-26T07:18:53.975Z,26.03
2019-04-26T07:19:53.992Z,25.19
2019-04-26T07:20:54.026Z,24.90
2019-04-26T07:21:53.943Z,24.64
2019-04-26T07:22:53.931Z,24.27
2019-04-26T07:23:53.919Z,24.46
2019-04-26T07:24:53.970Z,24.29
2019-04-26T07:25:53.938Z,24.31
2019-04-26T07:26:53.900Z,24.31
2019-04-26T07:28:03.652Z,24.18
2019-04-26T07:28:54.870Z,23.89
2019-04-26T07:29:53.883Z,23.67
2019-04-26T07:30:53.846Z,23.90
2019-04-26T07:31:53.854Z,25.14
2019-04-26T07:32:53.828Z,25.86
2019-04-26T07:33:53.824Z,25.39
2019-04-26T07:34:53.801Z,24.66
2019-04-26T07:35:53.813Z,24.42
2019-04-26T07:36:53.785Z,24.41
2019-04-26T07:37:53.775Z,24.23
2019-04-26T07:38:53.764Z,24.02
2019-04-26T07:39:53.762Z,24.92
2019-04-26T07:40:53.775Z,26.38
2019-04-26T07:41:53.730Z,28.28
2019-04-26T07:42:53.717Z,28.08
2019-04-26T07:43:53.709Z,27.61
2019-04-26T07:44:53.704Z,26.83
2019-04-26T07:45:53.697Z,25.42
2019-04-26T07:46:53.706Z,24.33
2019-04-26T07:47:53.673Z,23.92
2019-04-26T07:48:53.653Z,23.78
2019-04-26T07:49:53.644Z,24.94
2019-04-26T07:50:53.641Z,26.31
2019-04-26T07:51:53.660Z,27.80
2019-04-26T07:52:53.633Z,28.21
2019-04-26T07:53:53.603Z,27.87
2019-04-26T07:54:53.591Z,27.45
2019-04-26T07:55:53.581Z,27.43
2019-04-26T07:56:53.579Z,28.72
2019-04-26T07:57:53.588Z,28.24
2019-04-26T07:58:53.558Z,27.53
2019-04-26T07:59:53.546Z,26.53
2019-04-26T08:00:53.530Z,26.06
2019-04-26T08:01:53.523Z,25.67
2019-04-26T08:02:53.537Z,26.00
2019-04-26T08:03:53.500Z,26.47
2019-04-26T08:04:53.509Z,27.24
2019-04-26T08:05:53.484Z,27.81
2019-04-26T08:06:53.474Z,27.86
2019-04-26T08:07:53.462Z,28.01
2019-04-26T08:08:53.474Z,28.50
2019-04-26T08:09:59.874Z,28.57
2019-04-26T08:10:54.437Z,28.35
2019-04-26T08:11:53.433Z,27.49
2019-04-26T08:12:53.407Z,26.09
2019-04-26T08:13:53.426Z,26.00
2019-04-26T08:14:53.384Z,26.09
2019-04-26T08:15:53.436Z,26.28
2019-04-26T08:16:53.372Z,26.23
2019-04-26T08:17:53.367Z,26.12
2019-04-26T08:18:53.439Z,25.98
2019-04-26T08:19:53.609Z,25.90
2019-04-26T08:20:53.339Z,25.93
2019-04-26T08:21:53.320Z,25.89
2019-04-26T08:22:53.312Z,26.00
2019-04-26T08:23:56.577Z,26.94
2019-04-26T08:24:53.322Z,27.02
2019-04-26T08:25:53.292Z,26.86
2019-04-26T08:26:53.284Z,27.28
2019-04-26T08:27:53.274Z,27.40
2019-04-26T08:28:56.643Z,27.62
2019-04-26T08:29:54.269Z,27.93
2019-04-26T08:30:53.240Z,28.76
2019-04-26T08:31:57.500Z,29.15
2019-04-26T08:32:53.210Z,29.45
2019-04-26T08:33:53.321Z,29.20
2019-04-26T08:34:53.187Z,28.89
2019-04-26T08:35:53.451Z,29.23
2019-04-26T08:36:53.176Z,28.62
2019-04-26T08:37:53.158Z,28.15
2019-04-26T08:38:54.047Z,27.84
2019-04-26T08:39:53.149Z,27.59
2019-04-26T08:40:53.163Z,27.25
2019-04-26T08:41:53.135Z,26.86
2019-04-26T08:42:53.381Z,26.51
2019-04-26T08:43:55.755Z,26.24
2019-04-26T08:44:53.076Z,26.03
2019-04-26T08:46:02.939Z,26.03
2019-04-26T08:46:54.052Z,26.01
2019-04-26T08:47:53.606Z,25.94
2019-04-26T08:48:53.040Z,25.83
2019-04-26T08:49:53.055Z,25.91
2019-04-26T08:50:53.027Z,26.21
2019-04-26T08:51:55.973Z,26.60
2019-04-26T08:52:53.009Z,28.18
2019-04-26T08:53:52.987Z,30.59
2019-04-26T08:54:53.013Z,31.74
2019-04-26T08:55:52.972Z,31.94
2019-04-26T08:56:52.953Z,31.45
2019-04-26T08:57:52.938Z,30.37
2019-04-26T08:58:52.928Z,29.58
2019-04-26T08:59:52.920Z,29.15
2019-04-26T09:00:52.940Z,28.88
2019-04-26T09:01:52.909Z,28.55
2019-04-26T09:02:52.897Z,28.42
2019-04-26T09:03:52.886Z,28.09
2019-04-26T09:04:52.868Z,27.95
2019-04-26T09:05:52.879Z,27.78
2019-04-26T09:06:52.852Z,27.65
2019-04-26T09:07:53.492Z,27.43
2019-04-26T09:08:52.834Z,27.40
2019-04-26T09:09:57.519Z,27.39
2019-04-26T09:10:53.824Z,27.35
2019-04-26T09:11:59.615Z,27.23
2019-04-26T09:12:53.790Z,27.03
2019-04-26T09:13:52.785Z,26.90
2019-04-26T09:14:52.781Z,28.70
2019-04-26T09:15:52.812Z,30.56
2019-04-26T09:16:52.753Z,32.28
2019-04-26T09:17:52.733Z,34.03
2019-04-26T09:18:55.235Z,35.17
2019-04-26T09:19:53.720Z,35.83
2019-04-26T09:20:52.711Z,36.40
2019-04-26T09:21:53.662Z,35.77
2019-04-26T09:22:56.066Z,34.63
2019-04-26T09:23:52.679Z,33.24
2019-04-26T09:24:55.043Z,32.41
2019-04-26T09:25:59.396Z,31.69
2019-04-26T09:26:53.670Z,31.32
2019-04-26T09:27:52.641Z,30.72
2019-04-26T09:28:52.900Z,30.26
2019-04-26T09:29:52.619Z,29.79
2019-04-26T09:30:52.606Z,29.54
2019-04-26T09:31:54.582Z,29.36
2019-04-26T09:32:52.680Z,29.05
2019-04-26T09:33:52.587Z,28.73
2019-04-26T09:34:52.570Z,28.43
2019-04-26T09:35:52.558Z,28.18
2019-04-26T09:36:52.550Z,27.96
2019-04-26T09:37:52.568Z,27.59
2019-04-26T09:38:52.524Z,27.68
2019-04-26T09:39:52.513Z,27.93
2019-04-26T09:40:55.914Z,27.90
2019-04-26T09:41:52.500Z,28.18
2019-04-26T09:42:52.483Z,28.40
2019-04-26T09:43:55.001Z,27.99
2019-04-26T09:44:53.474Z,27.59
2019-04-26T09:45:52.465Z,27.68
2019-04-26T09:46:54.181Z,27.95
2019-04-26T09:47:52.456Z,28.08
2019-04-26T09:48:52.457Z,28.35
2019-04-26T09:49:52.417Z,28.39
2019-04-26T09:50:52.417Z,28.50
2019-04-26T09:51:52.400Z,28.58
2019-04-26T09:52:52.383Z,28.54
2019-04-26T09:53:52.401Z,28.57
2019-04-26T09:54:52.371Z,27.95
2019-04-26T09:55:52.389Z,27.49
2019-04-26T09:56:52.360Z,27.50
2019-04-26T09:57:53.471Z,27.55
2019-04-26T09:58:52.354Z,27.40
2019-04-26T09:59:52.317Z,26.86
2019-04-26T10:00:52.300Z,26.29
2019-04-26T10:01:55.412Z,25.94
2019-04-26T10:02:53.281Z,25.93
2019-04-26T10:03:52.332Z,25.89
2019-04-26T10:04:52.265Z,25.81
2019-04-26T10:05:55.768Z,25.79
2019-04-26T10:06:52.245Z,25.97
2019-04-26T10:07:52.249Z,27.93
2019-04-26T10:08:52.494Z,28.42
2019-04-26T10:09:56.476Z,29.21
2019-04-26T10:10:53.201Z,28.77
2019-04-26T10:11:52.229Z,29.25
2019-04-26T10:12:52.190Z,29.92
2019-04-26T10:13:52.197Z,29.48
2019-04-26T10:14:52.162Z,29.29
2019-04-26T10:15:52.145Z,29.99
2019-04-26T10:16:52.146Z,30.10
2019-04-26T10:17:52.140Z,30.37
2019-04-26T10:18:54.422Z,29.92
2019-04-26T10:19:52.126Z,30.28
2019-04-26T10:20:52.101Z,30.00
2019-04-26T10:21:52.101Z,29.64
2019-04-26T10:22:52.089Z,30.10
2019-04-26T10:23:52.072Z,30.70
2019-04-26T10:24:52.083Z,31.05
2019-04-26T10:25:53.592Z,30.98
2019-04-26T10:26:52.044Z,31.50
2019-04-26T10:27:52.047Z,31.47
2019-04-26T10:28:52.246Z,32.02
2019-04-26T10:29:56.565Z,32.05
2019-04-26T10:30:53.009Z,32.14
2019-04-26T10:31:52.881Z,32.62
2019-04-26T10:32:51.982Z,33.33
2019-04-26T10:33:51.979Z,33.65
2019-04-26T10:34:51.992Z,34.12
2019-04-26T10:35:52.575Z,34.49
2019-04-26T10:36:51.955Z,34.67
2019-04-26T10:37:52.703Z,34.00
2019-04-26T10:38:54.438Z,33.70
2019-04-26T10:39:51.962Z,33.49
2019-04-26T10:40:52.887Z,33.94
2019-04-26T10:41:51.905Z,32.81
2019-04-26T10:42:51.894Z,32.50
2019-04-26T10:43:51.886Z,32.06
2019-04-26T10:44:51.918Z,32.06
2019-04-26T10:45:53.909Z,32.32
2019-04-26T10:46:55.629Z,32.90
2019-04-26T10:47:51.858Z,33.68
2019-04-26T10:48:51.849Z,34.45
2019-04-26T10:49:54.382Z,34.49
2019-04-26T10:50:52.842Z,34.94
2019-04-26T10:51:51.834Z,34.73
2019-04-26T10:52:54.245Z,35.02
2019-04-26T10:53:51.804Z,34.88
2019-04-26T10:54:51.819Z,34.69
2019-04-26T10:55:51.780Z,34.40
2019-04-26T10:56:51.777Z,34.12
2019-04-26T10:57:51.779Z,34.09
2019-04-26T10:58:51.760Z,34.08
2019-04-26T10:59:51.791Z,33.35
2019-04-26T11:00:52.670Z,33.40
2019-04-26T11:01:51.729Z,34.31
2019-04-26T11:02:51.723Z,35.36
2019-04-26T11:03:51.721Z,35.21
2019-04-26T11:04:51.705Z,35.02
2019-04-26T11:05:53.659Z,34.75
2019-04-26T11:06:51.691Z,35.55
2019-04-26T11:07:53.389Z,36.11
2019-04-26T11:08:51.671Z,36.40
2019-04-26T11:09:51.663Z,36.06
2019-04-26T11:10:51.675Z,36.02
2019-04-26T11:11:51.654Z,34.95
2019-04-26T11:12:51.633Z,33.81
2019-04-26T11:13:51.625Z,33.11
2019-04-26T11:14:53.367Z,33.41
2019-04-26T11:15:51.627Z,33.77
2019-04-26T11:16:51.644Z,34.16
2019-04-26T11:17:51.596Z,34.95
2019-04-26T11:18:51.583Z,35.77
2019-04-26T11:19:51.588Z,36.57
2019-04-26T11:20:51.579Z,37.11
2019-04-26T11:21:54.886Z,36.25
2019-04-26T11:22:51.573Z,35.44
2019-04-26T11:23:51.550Z,34.76
2019-04-26T11:24:53.848Z,33.78
2019-04-26T11:25:51.540Z,34.56
2019-04-26T11:26:51.524Z,34.94
2019-04-26T11:27:51.504Z,35.68
2019-04-26T11:28:55.539Z,36.38
2019-04-26T11:29:53.783Z,36.99
2019-04-26T11:30:52.042Z,36.74
2019-04-26T11:31:54.052Z,36.55
2019-04-26T11:32:51.468Z,36.71
2019-04-26T11:33:51.497Z,37.05
2019-04-26T11:34:54.634Z,36.40
2019-04-26T11:35:52.447Z,34.99
2019-04-26T11:36:51.458Z,35.24
2019-04-26T11:37:55.194Z,36.21
2019-04-26T11:38:52.449Z,36.53
2019-04-26T11:39:51.417Z,35.85
2019-04-26T11:41:05.047Z,35.59
2019-04-26T11:41:52.407Z,35.56
2019-04-26T11:42:51.394Z,35.24
2019-04-26T11:43:52.807Z,35.64
2019-04-26T11:44:51.366Z,35.56
2019-04-26T11:46:03.526Z,36.49
2019-04-26T11:46:52.373Z,37.30
2019-04-26T11:47:56.172Z,37.90
2019-04-26T11:48:58.784Z,38.49
2019-04-26T11:49:52.347Z,38.63
2019-04-26T11:50:52.310Z,38.75
2019-04-26T11:51:51.330Z,38.06
2019-04-26T11:52:51.317Z,36.79
2019-04-26T11:53:51.312Z,35.25
2019-04-26T11:54:54.856Z,33.78
2019-04-26T11:55:51.277Z,32.58
2019-04-26T11:56:51.358Z,32.03
2019-04-26T11:57:51.254Z,32.16
2019-04-26T11:58:52.435Z,32.03
2019-04-26T11:59:52.242Z,31.82
2019-04-26T12:00:51.250Z,31.82
2019-04-26T12:01:51.259Z,31.74
2019-04-26T12:02:52.263Z,31.79
2019-04-26T12:03:51.698Z,32.14
2019-04-26T12:04:53.867Z,32.32
2019-04-26T12:05:51.187Z,32.84
2019-04-26T12:06:51.212Z,33.07
2019-04-26T12:07:51.172Z,33.28
2019-04-26T12:08:51.158Z,33.34
2019-04-26T12:09:51.156Z,32.40
2019-04-26T12:10:51.138Z,32.63
2019-04-26T12:12:03.707Z,32.50
2019-04-26T12:12:52.161Z,32.36
2019-04-26T12:13:51.120Z,32.10
2019-04-26T12:14:51.101Z,31.56
2019-04-26T12:15:51.095Z,31.59
2019-04-26T12:16:54.934Z,31.37
2019-04-26T12:17:58.333Z,30.76
2019-04-26T12:18:52.080Z,30.15
2019-04-26T12:19:52.340Z,29.84
2019-04-26T12:20:51.048Z,29.86
2019-04-26T12:21:51.043Z,30.11
2019-04-26T12:22:51.043Z,30.48
2019-04-26T12:23:51.365Z,30.46
2019-04-26T12:24:51.019Z,30.19
2019-04-26T12:25:51.005Z,30.25
2019-04-26T12:26:51.979Z,29.62
2019-04-26T12:27:53.454Z,29.29
2019-04-26T12:28:50.961Z,28.92
2019-04-26T12:29:50.957Z,28.60
2019-04-26T12:30:54.110Z,28.27
2019-04-26T12:31:51.931Z,27.90
2019-04-26T12:32:50.962Z,27.80
2019-04-26T12:33:50.922Z,27.66
2019-04-26T12:34:50.915Z,27.55
2019-04-26T12:35:56.922Z,27.84
2019-04-26T12:36:51.889Z,27.93
2019-04-26T12:37:54.716Z,27.77
2019-04-26T12:38:51.322Z,27.71
2019-04-26T12:39:50.862Z,27.93
2019-04-26T12:40:50.863Z,28.28
2019-04-26T12:41:50.834Z,29.02
2019-04-26T12:42:50.822Z,29.76
2019-04-26T12:43:54.506Z,31.05
2019-04-26T12:44:51.812Z,32.40
2019-04-26T12:45:51.521Z,32.71
2019-04-26T12:46:50.919Z,32.98
2019-04-26T12:47:50.781Z,33.03
2019-04-26T12:48:51.367Z,33.41
2019-04-26T12:49:54.479Z,33.75
2019-04-26T12:50:51.743Z,33.70
2019-04-26T12:51:52.204Z,34.24
2019-04-26T12:52:51.490Z,34.30